Time,TemperatureF,DewpointF,PressureIn,WindDirection,WindDirectionDegrees,WindSpeedMPH,WindSpeedGustMPH,Humidity,HourlyPrecipIn,Conditions,Clouds,dailyrainin,SoftwareType,DateUTC
2013-12-05 00:12:00,37.2,29.0,30.04,NE,49,4.0,-999.0,71,-99.99,,,0.00,weatherlink.com 1.10,2013-12-05 08:12:00,
2013-12-05 00:27:00,36.0,27.0,30.04,NE,48,0.0,-999.0,71,-99.99,,,0.00,weatherlink.com 1.10,2013-12-05 08:27:00,
2013-12-05 00:42:00,34.6,26.0,30.04,NE,48,3.0,-999.0,72,-99.99,,,0.00,weatherlink.com 1.10,2013-12-05 08:42:00,
2013-12-05 00:57:00,33.2,26.0,30.04,NE,48,4.0,-999.0,74,-99.99,,,0.00,weatherlink.com 1.10,2013-12-05 08:57:00,
2013-12-05 01:12:00,32.5,26.0,30.04,NE,49,2.0,-999.0,76,-99.99,,,0.00,weatherlink.com 1.10,2013-12-05 09:12:00,
2013-12-05 01:27:00,32.1,26.0,30.03,NE,42,4.0,-999.0,77,-99.99,,,0.00,weatherlink.com 1.10,2013-12-05 09:27:00,
2013-12-05 01:41:00,32.0,26.0,30.04,NE,53,3.0,-999.0,78,-99.99,,,0.00,weatherlink.com 1.10,2013-12-05 09:41:00,
2013-12-05 01:58:00,32.2,26.0,30.04,NE,51,4.0,-999.0,78,-99.99,,,0.00,weatherlink.com 1.10,2013-12-05 09:58:00,
2013-12-05 02:11:00,32.1,26.0,30.04,NE,49,3.0,-999.0,78,-99.99,,,0.00,weatherlink.com 1.10,2013-12-05 10:11:00,
2013-12-05 02:26:00,32.1,26.0,30.04,NE,54,2.0,-999.0,78,-99.99,,,0.00,weatherlink.com 1.10,2013-12-05 10:26:00,
2013-12-05 02:41:00,32.3,26.0,30.04,NE,53,0.0,-999.0,77,-99.99,,,0.00,weatherlink.com 1.10,2013-12-05 10:41:00,
2013-12-05 02:56:00,31.7,25.0,30.04,NE,53,3.0,-999.0,77,-99.99,,,0.00,weatherlink.com 1.10,2013-12-05 10:56:00,
2013-12-05 03:12:00,31.3,25.0,30.04,NE,55,1.0,-999.0,77,-99.99,,,0.00,weatherlink.com 1.10,2013-12-05 11:12:00,
2013-12-05 03:27:00,31.1,25.0,30.04,ENE,63,1.0,-999.0,78,-99.99,,,0.00,weatherlink.com 1.10,2013-12-05 11:27:00,
2013-12-05 03:41:00,30.7,25.0,30.04,ENE,62,3.0,-999.0,78,-99.99,,,0.00,weatherlink.com 1.10,2013-12-05 11:41:00,
2013-12-05 03:56:00,30.3,25.0,30.04,ENE,62,2.0,-999.0,79,-99.99,,,0.00,weatherlink.com 1.10,2013-12-05 11:56:00,
2013-12-05 04:12:00,30.1,24.0,30.05,ENE,62,1.0,-999.0,79,-99.99,,,0.00,weatherlink.com 1.10,2013-12-05 12:12:00,
2013-12-05 04:26:00,29.9,24.0,30.05,ENE,62,1.0,-999.0,79,-99.99,,,0.00,weatherlink.com 1.10,2013-12-05 12:26:00,
2013-12-05 04:41:00,29.9,24.0,30.05,ENE,62,3.0,-999.0,80,-99.99,,,0.00,weatherlink.com 1.10,2013-12-05 12:41:00,
2013-12-05 04:56:00,29.9,24.0,30.05,ENE,62,2.0,-999.0,80,-99.99,,,0.00,weatherlink.com 1.10,2013-12-05 12:56:00,
2013-12-05 05:12:00,29.8,24.0,30.05,ENE,62,2.0,-999.0,80,-99.99,,,0.00,weatherlink.com 1.10,2013-12-05 13:12:00,
2013-12-05 05:27:00,29.6,24.0,30.05,ENE,62,2.0,-999.0,80,-99.99,,,0.00,weatherlink.com 1.10,2013-12-05 13:27:00,
2013-12-05 05:41:00,29.4,24.0,30.05,NE,53,3.0,-999.0,80,-99.99,,,0.00,weatherlink.com 1.10,2013-12-05 13:41:00,
2013-12-05 05:56:00,29.2,24.0,30.06,NE,53,1.0,-999.0,80,-99.99,,,0.00,weatherlink.com 1.10,2013-12-05 13:56:00,
2013-12-05 06:12:00,29.5,24.0,30.06,NE,42,3.0,-999.0,80,-99.99,,,0.00,weatherlink.com 1.10,2013-12-05 14:12:00,
2013-12-05 06:27:00,29.7,24.0,30.06,NE,51,3.0,-999.0,79,-99.99,,,0.00,weatherlink.com 1.10,2013-12-05 14:27:00,
2013-12-05 06:42:00,29.6,24.0,30.06,NE,52,3.0,-999.0,79,-99.99,,,0.00,weatherlink.com 1.10,2013-12-05 14:42:00,
2013-12-05 06:57:00,29.4,24.0,30.06,NE,50,3.0,-999.0,79,-99.99,,,0.00,weatherlink.com 1.10,2013-12-05 14:57:00,
2013-12-05 07:12:00,29.0,23.0,30.06,NE,46,3.0,-999.0,79,-99.99,,,0.00,weatherlink.com 1.10,2013-12-05 15:12:00,
2013-12-05 07:27:00,28.8,23.0,30.06,NE,50,4.0,-999.0,79,-99.99,,,0.00,weatherlink.com 1.10,2013-12-05 15:27:00,
2013-12-05 07:41:00,28.8,23.0,30.06,NE,52,4.0,-999.0,79,-99.99,,,0.00,weatherlink.com 1.10,2013-12-05 15:41:00,
2013-12-05 07:57:00,29.2,23.0,30.07,ENE,61,1.0,-999.0,79,-99.99,,,0.00,weatherlink.com 1.10,2013-12-05 15:57:00,
2013-12-05 08:12:00,29.6,24.0,30.07,ENE,61,3.0,-999.0,79,-99.99,,,0.00,weatherlink.com 1.10,2013-12-05 16:12:00,
2013-12-05 08:27:00,30.3,24.0,30.08,ENE,61,2.0,-999.0,78,-99.99,,,0.00,weatherlink.com 1.10,2013-12-05 16:27:00,
2013-12-05 08:42:00,31.0,25.0,30.08,ENE,61,1.0,-999.0,79,-99.99,,,0.00,weatherlink.com 1.10,2013-12-05 16:42:00,
2013-12-05 08:57:00,31.7,26.0,30.09,ENE,61,0.0,-999.0,79,-99.99,,,0.00,weatherlink.com 1.10,2013-12-05 16:57:00,
2013-12-05 09:12:00,32.7,27.0,30.09,ENE,61,0.0,-999.0,80,-99.99,,,0.00,weatherlink.com 1.10,2013-12-05 17:12:00,
2013-12-05 09:27:00,34.1,29.0,30.09,ENE,61,0.0,-999.0,80,-99.99,,,0.00,weatherlink.com 1.10,2013-12-05 17:27:00,
2013-12-05 09:42:00,36.3,29.0,30.10,NNE,12,0.0,-999.0,76,-99.99,,,0.00,weatherlink.com 1.10,2013-12-05 17:42:00,
2013-12-05 09:57:00,40.9,31.0,30.10,NW,320,1.0,-999.0,67,-99.99,,,0.00,weatherlink.com 1.10,2013-12-05 17:57:00,
2013-12-05 10:12:00,43.0,31.0,30.10,NW,323,1.0,-999.0,63,-99.99,,,0.00,weatherlink.com 1.10,2013-12-05 18:12:00,
2013-12-05 10:27:00,45.0,32.0,30.10,NNE,17,3.0,-999.0,61,-99.99,,,0.00,weatherlink.com 1.10,2013-12-05 18:27:00,
2013-12-05 10:42:00,45.5,30.0,30.10,NW,315,8.0,-999.0,54,-99.99,,,0.00,weatherlink.com 1.10,2013-12-05 18:42:00,
2013-12-05 10:56:00,46.1,28.0,30.10,North,5,3.0,-999.0,50,-99.99,,,0.00,weatherlink.com 1.10,2013-12-05 18:56:00,
2013-12-05 11:11:00,46.4,28.0,30.10,NW,314,12.0,-999.0,49,-99.99,,,0.00,weatherlink.com 1.10,2013-12-05 19:11:00,
2013-12-05 11:28:00,46.7,29.0,30.09,NW,321,10.0,-999.0,50,-99.99,,,0.00,weatherlink.com 1.10,2013-12-05 19:28:00,
2013-12-05 11:41:00,46.9,31.0,30.09,NW,321,6.0,-999.0,54,-99.99,,,0.00,weatherlink.com 1.10,2013-12-05 19:41:00,
2013-12-05 11:56:00,46.7,29.0,30.09,NW,308,11.0,-999.0,51,-99.99,,,0.00,weatherlink.com 1.10,2013-12-05 19:56:00,
2013-12-05 12:11:00,46.7,29.0,30.08,NW,319,13.0,-999.0,51,-99.99,,,0.00,weatherlink.com 1.10,2013-12-05 20:11:00,
2013-12-05 12:26:00,47.0,29.0,30.08,NW,318,13.0,-999.0,50,-99.99,,,0.00,weatherlink.com 1.10,2013-12-05 20:26:00,
2013-12-05 12:42:00,47.4,31.0,30.08,NW,315,9.0,-999.0,53,-99.99,,,0.00,weatherlink.com 1.10,2013-12-05 20:42:00,
2013-12-05 12:56:00,47.7,32.0,30.08,NNE,22,11.0,-999.0,55,-99.99,,,0.00,weatherlink.com 1.10,2013-12-05 20:56:00,
2013-12-05 13:11:00,47.3,32.0,30.07,NW,305,14.0,-999.0,56,-99.99,,,0.00,weatherlink.com 1.10,2013-12-05 21:11:00,
2013-12-05 13:27:00,47.5,33.0,30.07,WNW,298,6.0,-999.0,58,-99.99,,,0.00,weatherlink.com 1.10,2013-12-05 21:27:00,
2013-12-05 13:41:00,47.2,33.0,30.07,NNW,342,11.0,-999.0,58,-99.99,,,0.00,weatherlink.com 1.10,2013-12-05 21:41:00,
2013-12-05 13:57:00,47.4,33.0,30.07,NW,319,12.0,-999.0,57,-99.99,,,0.00,weatherlink.com 1.10,2013-12-05 21:57:00,
2013-12-05 14:12:00,47.2,34.0,30.07,NNW,336,13.0,-999.0,60,-99.99,,,0.00,weatherlink.com 1.10,2013-12-05 22:12:00,
2013-12-05 14:27:00,47.2,34.0,30.06,NW,309,10.0,-999.0,60,-99.99,,,0.00,weatherlink.com 1.10,2013-12-05 22:27:00,
2013-12-05 14:42:00,47.1,33.0,30.06,NNW,346,13.0,-999.0,59,-99.99,,,0.00,weatherlink.com 1.10,2013-12-05 22:42:00,
2013-12-05 14:56:00,47.2,34.0,30.06,NW,319,12.0,-999.0,60,-99.99,,,0.00,weatherlink.com 1.10,2013-12-05 22:56:00,
2013-12-05 15:12:00,46.9,34.0,30.07,NW,317,9.0,-999.0,62,-99.99,,,0.00,weatherlink.com 1.10,2013-12-05 23:12:00,
2013-12-05 15:27:00,47.4,34.0,30.07,NW,308,11.0,-999.0,61,-99.99,,,0.00,weatherlink.com 1.10,2013-12-05 23:27:00,
2013-12-05 15:41:00,47.2,33.0,30.07,North,355,10.0,-999.0,59,-99.99,,,0.00,weatherlink.com 1.10,2013-12-05 23:41:00,
2013-12-05 15:57:00,46.8,33.0,30.07,NW,313,8.0,-999.0,58,-99.99,,,0.00,weatherlink.com 1.10,2013-12-05 23:57:00,
2013-12-05 16:12:00,46.1,32.0,30.07,North,360,7.0,-999.0,59,-99.99,,,0.00,weatherlink.com 1.10,2013-12-06 00:12:00,
2013-12-05 16:27:00,45.6,32.0,30.07,NNW,346,3.0,-999.0,60,-99.99,,,0.00,weatherlink.com 1.10,2013-12-06 00:27:00,
2013-12-05 16:41:00,44.7,31.0,30.07,NNW,344,6.0,-999.0,58,-99.99,,,0.00,weatherlink.com 1.10,2013-12-06 00:41:00,
2013-12-05 16:57:00,43.8,31.0,30.07,North,5,2.0,-999.0,60,-99.99,,,0.00,weatherlink.com 1.10,2013-12-06 00:57:00,
2013-12-05 17:11:00,43.2,31.0,30.07,North,355,7.0,-999.0,63,-99.99,,,0.00,weatherlink.com 1.10,2013-12-06 01:11:00,
2013-12-05 17:26:00,42.0,31.0,30.07,North,5,3.0,-999.0,64,-99.99,,,0.00,weatherlink.com 1.10,2013-12-06 01:26:00,
2013-12-05 17:42:00,40.4,30.0,30.07,NE,38,3.0,-999.0,67,-99.99,,,0.00,weatherlink.com 1.10,2013-12-06 01:42:00,
2013-12-05 17:56:00,39.7,30.0,30.07,NE,39,3.0,-999.0,69,-99.99,,,0.00,weatherlink.com 1.10,2013-12-06 01:56:00,
2013-12-05 18:11:00,39.4,31.0,30.08,NNE,30,3.0,-999.0,71,-99.99,,,0.00,weatherlink.com 1.10,2013-12-06 02:11:00,
2013-12-05 18:27:00,39.2,31.0,30.08,NE,41,6.0,-999.0,72,-99.99,,,0.00,weatherlink.com 1.10,2013-12-06 02:27:00,
2013-12-05 18:42:00,38.9,31.0,30.08,NE,34,5.0,-999.0,72,-99.99,,,0.00,weatherlink.com 1.10,2013-12-06 02:42:00,
2013-12-05 18:57:00,38.5,31.0,30.08,NE,45,5.0,-999.0,73,-99.99,,,0.00,weatherlink.com 1.10,2013-12-06 02:57:00,
2013-12-05 19:12:00,38.0,30.0,30.08,NE,42,5.0,-999.0,73,-99.99,,,0.00,weatherlink.com 1.10,2013-12-06 03:12:00,
2013-12-05 19:27:00,37.9,31.0,30.08,NE,46,4.0,-999.0,75,-99.99,,,0.00,weatherlink.com 1.10,2013-12-06 03:27:00,
2013-12-05 19:41:00,37.7,30.0,30.08,NE,48,4.0,-999.0,75,-99.99,,,0.00,weatherlink.com 1.10,2013-12-06 03:41:00,
2013-12-05 19:57:00,37.1,30.0,30.09,NE,42,6.0,-999.0,75,-99.99,,,0.00,weatherlink.com 1.10,2013-12-06 03:57:00,
2013-12-05 20:12:00,36.8,30.0,30.09,NE,43,5.0,-999.0,76,-99.99,,,0.00,weatherlink.com 1.10,2013-12-06 04:12:00,
2013-12-05 20:26:00,36.8,30.0,30.09,NE,44,4.0,-999.0,77,-99.99,,,0.00,weatherlink.com 1.10,2013-12-06 04:26:00,
2013-12-05 20:42:00,36.9,30.0,30.09,NE,51,5.0,-999.0,77,-99.99,,,0.00,weatherlink.com 1.10,2013-12-06 04:42:00,
2013-12-05 20:57:00,36.7,30.0,30.09,NE,50,4.0,-999.0,77,-99.99,,,0.00,weatherlink.com 1.10,2013-12-06 04:57:00,
2013-12-05 21:12:00,36.2,30.0,30.09,NE,54,3.0,-999.0,77,-99.99,,,0.00,weatherlink.com 1.10,2013-12-06 05:12:00,
2013-12-05 21:27:00,35.8,30.0,30.09,NE,53,2.0,-999.0,78,-99.99,,,0.00,weatherlink.com 1.10,2013-12-06 05:27:00,
2013-12-05 21:42:00,35.2,29.0,30.10,NE,52,4.0,-999.0,79,-99.99,,,0.00,weatherlink.com 1.10,2013-12-06 05:42:00,
2013-12-05 21:57:00,34.7,29.0,30.10,NE,53,4.0,-999.0,80,-99.99,,,0.00,weatherlink.com 1.10,2013-12-06 05:57:00,
2013-12-05 22:11:00,34.8,30.0,30.10,NE,46,3.0,-999.0,82,-99.99,,,0.00,weatherlink.com 1.10,2013-12-06 06:11:00,
2013-12-05 22:27:00,34.7,30.0,30.10,NE,44,1.0,-999.0,82,-99.99,,,0.00,weatherlink.com 1.10,2013-12-06 06:27:00,
2013-12-05 22:41:00,34.4,30.0,30.09,NE,46,5.0,-999.0,83,-99.99,,,0.00,weatherlink.com 1.10,2013-12-06 06:41:00,
2013-12-05 22:57:00,34.5,30.0,30.09,NE,48,4.0,-999.0,84,-99.99,,,0.00,weatherlink.com 1.10,2013-12-06 06:57:00,
2013-12-05 23:12:00,34.7,30.0,30.10,NE,45,4.0,-999.0,84,-99.99,,,0.00,weatherlink.com 1.10,2013-12-06 07:12:00,
2013-12-05 23:27:00,34.6,30.0,30.10,NE,34,3.0,-999.0,83,-99.99,,,0.00,weatherlink.com 1.10,2013-12-06 07:27:00,
2013-12-05 23:42:00,34.5,30.0,30.09,NE,55,5.0,-999.0,83,-99.99,,,0.00,weatherlink.com 1.10,2013-12-06 07:42:00,
2013-12-05 23:57:00,34.5,30.0,30.09,NE,50,4.0,-999.0,82,-99.99,,,0.00,weatherlink.com 1.10,2013-12-06 07:57:00,